PARDEE (PAR)

Elevation: 568' · MOKELUMNE R basin · Operator: East Bay Municipal Utility District

Provisional data, subject to change.
Query executed Friday at 20:41:55   clock

Select a sensor type for a plot of data.
Note: Reservoir Flows are daily averages.

Earlier

Date RES ELE    STORAGE    RES CHG    OUTFLOW    INFLOW    PPT INC   
 FEET   AF   AF   CFS   CFS   INCHES  
10/29/2014 549.15 159473 -505 704 243 0.00
10/30/2014 549.39 159947 474 199 87 0.00
10/31/2014 549.71 160567 620 192 383 0.57
11/01/2014 -- -- -- -- -- 0.10
11/02/2014 -- -- -- -- -- 0.00
11/03/2014 -- -- -- -- -- 0.00
11/04/2014 -- -- -- -- -- 0.00
11/05/2014 -- -- -- -- -- 0.00
11/06/2014 549.47 160094 -- 251 13 0.00
11/07/2014 549.60 160346 252 263 374 0.00
11/08/2014 549.79 160726 380 227 367 0.00
11/09/2014 549.97 161080 354 211 364 0.00
11/10/2014 550.17 161467 387 212 391 0.00
11/11/2014 550.40 161918 451 211 396 0.00
11/12/2014 550.58 162271 353 230 348 0.00
11/13/2014 550.86 162823 552 223 427 0.63
11/14/2014 551.12 163330 507 191 414 0.00
11/15/2014 551.37 163811 481 180 364 0.00
11/16/2014 551.54 164158 347 196 384 0.00
11/17/2014 551.73 164532 374 208 340 0.01
11/18/2014 551.89 164847 315 209 361 0.00
11/19/2014 552.12 165295 448 213 366 0.01
11/20/2014 552.33 165717 422 211 375 0.16
11/21/2014 552.52 166099 382 221 394 0.01
11/22/2014 552.81 166676 577 227 371 0.36
11/23/2014 553.15 167358 682 212 485 0.01
11/24/2014 553.35 167754 396 206 447 0.00
11/25/2014 553.56 168174 420 208 391 0.00
11/26/2014 553.84 168738 564 222 386 --
11/27/2014 554.11 169267 529 228 437 --
11/28/2014 -- -- -- -- -- --

Later | Latest

Warning! This data is preliminary and subject to revision.

Show PAR Map | Plot PAR Data | 1 Month PAR Data | Real-Time PAR Data | PAR Info